createdAt,value
2023-04-19T00:02:19.696Z,91.92
2023-04-19T00:05:26.914Z,92.45
2023-04-19T00:08:33.297Z,90.81
2023-04-19T00:11:39.483Z,90.27
2023-04-19T00:14:45.582Z,90.02
2023-04-19T00:17:51.606Z,92.67
2023-04-19T00:20:57.185Z,94.02
2023-04-19T00:24:02.756Z,95.03
2023-04-19T00:27:07.368Z,95.34
2023-04-19T00:30:13.681Z,95.51
2023-04-19T00:33:21.097Z,95.13
2023-04-19T00:36:28.289Z,95.47
2023-04-19T00:39:32.828Z,95.19
2023-04-19T00:42:38.593Z,95.25
2023-04-19T00:45:43.288Z,95.33
2023-04-19T00:48:49.537Z,94.20
2023-04-19T00:51:56.121Z,95.79
2023-04-19T00:55:02.592Z,97.40
2023-04-19T00:58:02.762Z,97.96
2023-04-19T01:00:48.256Z,98.32
2023-04-19T01:03:42.864Z,97.92
2023-04-19T01:06:36.300Z,97.70
2023-04-19T01:09:42.617Z,97.28
2023-04-19T01:12:47.872Z,98.33
2023-04-19T01:15:53.854Z,99.01
2023-04-19T01:18:59.229Z,99.40
2023-04-19T01:22:05.323Z,99.58
2023-04-19T01:25:11.657Z,100.00
2023-04-19T01:28:16.763Z,99.52
2023-04-19T01:31:22.596Z,99.41
2023-04-19T01:34:21.763Z,98.91
2023-04-19T01:37:14.369Z,98.78
2023-04-19T01:40:13.690Z,98.20
2023-04-19T01:43:12.316Z,99.66
2023-04-19T01:46:17.989Z,98.84
2023-04-19T01:49:22.724Z,97.63
2023-04-19T01:52:28.324Z,100.00
2023-04-19T01:55:33.844Z,100.00
2023-04-19T01:58:39.552Z,100.00
2023-04-19T02:01:44.957Z,99.83
2023-04-19T02:04:51.323Z,98.93
2023-04-19T02:07:59.457Z,98.10
2023-04-19T02:11:05.691Z,98.28
2023-04-19T02:14:10.496Z,98.21
2023-04-19T02:17:15.889Z,96.69
2023-04-19T02:20:24.490Z,96.60
2023-04-19T02:23:29.884Z,97.61
2023-04-19T02:26:34.719Z,96.96
2023-04-19T02:29:39.606Z,96.51
2023-04-19T02:32:45.251Z,98.57
2023-04-19T02:35:51.195Z,98.90
2023-04-19T02:38:59.102Z,100.00
2023-04-19T02:42:04.599Z,100.00
2023-04-19T02:45:09.719Z,100.00
2023-04-19T02:48:15.224Z,100.00
2023-04-19T02:51:21.079Z,99.37
2023-04-19T02:54:26.633Z,99.41
2023-04-19T02:57:32.568Z,100.00
2023-04-19T03:00:33.296Z,99.76
2023-04-19T03:03:42.141Z,99.09
2023-04-19T03:06:49.246Z,99.59
2023-04-19T03:09:55.690Z,100.00
2023-04-19T03:13:01.827Z,100.00
2023-04-19T03:16:07.926Z,100.00
2023-04-19T03:19:14.053Z,100.00
2023-04-19T03:22:21.780Z,100.00
2023-04-19T03:25:27.345Z,100.00
2023-04-19T03:28:35.383Z,100.00
2023-04-19T03:31:53.006Z,100.00
2023-04-19T03:34:59.118Z,100.00
2023-04-19T03:38:06.645Z,100.00
2023-04-19T03:41:11.901Z,100.00
2023-04-19T03:44:18.878Z,100.00
2023-04-19T03:47:24.874Z,100.00
2023-04-19T03:50:31.104Z,100.00
2023-04-19T03:53:37.088Z,100.00
2023-04-19T03:56:43.399Z,100.00
2023-04-19T03:59:51.232Z,100.00
2023-04-19T04:02:57.326Z,99.34
2023-04-19T04:06:05.966Z,98.71
2023-04-19T04:09:11.231Z,98.58
2023-04-19T04:12:16.665Z,98.18
2023-04-19T04:15:24.842Z,98.40
2023-04-19T04:18:33.713Z,97.67
2023-04-19T04:21:40.777Z,97.18
2023-04-19T04:24:51.958Z,95.87
2023-04-19T04:28:01.614Z,94.51
2023-04-19T04:31:08.840Z,94.01
2023-04-19T04:34:16.949Z,93.17
2023-04-19T04:37:24.908Z,94.98
2023-04-19T04:40:31.465Z,94.13
2023-04-19T04:43:39.128Z,92.51
2023-04-19T04:46:37.803Z,90.90
2023-04-19T04:49:45.211Z,86.51
2023-04-19T04:52:50.009Z,87.19
2023-04-19T04:56:00.971Z,84.96
2023-04-19T04:59:06.759Z,84.68
2023-04-19T05:02:14.329Z,84.31
2023-04-19T05:05:20.539Z,84.40
2023-04-19T05:08:26.908Z,84.84
2023-04-19T05:11:34.674Z,81.41
2023-04-19T05:14:40.649Z,82.57
2023-04-19T05:17:45.953Z,84.22
2023-04-19T05:20:51.210Z,83.58
2023-04-19T05:24:00.202Z,83.98
2023-04-19T05:27:05.513Z,83.46
2023-04-19T05:30:12.239Z,83.46
2023-04-19T05:33:17.815Z,84.54
2023-04-19T05:36:23.615Z,84.63
2023-04-19T05:39:27.993Z,84.25
2023-04-19T05:42:33.031Z,83.46
2023-04-19T05:45:39.386Z,81.98
2023-04-19T05:48:43.866Z,81.22
2023-04-19T05:51:58.352Z,80.62
2023-04-19T05:55:08.711Z,81.05
2023-04-19T05:57:57.209Z,81.47
2023-04-19T06:00:49.754Z,81.71
2023-04-19T06:03:35.359Z,79.29
2023-04-19T06:06:30.495Z,80.05
2023-04-19T06:09:30.779Z,81.33
2023-04-19T06:12:38.265Z,79.86
2023-04-19T06:15:43.606Z,77.42
2023-04-19T06:18:49.504Z,77.51
2023-04-19T06:21:55.783Z,76.37
2023-04-19T06:25:02.399Z,76.73
2023-04-19T06:28:08.106Z,76.74
2023-04-19T06:31:13.659Z,75.92
2023-04-19T06:34:19.870Z,76.46
2023-04-19T06:37:26.557Z,75.92
2023-04-19T06:40:31.436Z,74.57
2023-04-19T06:43:37.366Z,74.79
2023-04-19T06:46:42.628Z,74.71
2023-04-19T06:49:48.301Z,75.57
2023-04-19T06:52:53.377Z,72.40
2023-04-19T06:56:01.632Z,72.20
2023-04-19T06:59:07.733Z,72.33
2023-04-19T07:02:12.813Z,70.68
2023-04-19T07:05:20.014Z,70.29
2023-04-19T07:08:27.890Z,70.79
2023-04-19T07:11:31.460Z,73.80
2023-04-19T07:14:36.607Z,71.10
2023-04-19T07:17:42.738Z,71.06
2023-04-19T07:20:43.162Z,71.09
2023-04-19T07:23:47.173Z,72.10
2023-04-19T07:26:52.894Z,71.50
2023-04-19T07:29:57.135Z,71.12
2023-04-19T07:33:02.625Z,70.08
2023-04-19T07:36:08.011Z,70.27
2023-04-19T07:39:12.681Z,70.54
2023-04-19T07:42:17.535Z,70.01
2023-04-19T07:45:23.175Z,72.59
2023-04-19T07:48:28.856Z,71.49
2023-04-19T07:51:27.893Z,72.48
2023-04-19T07:54:23.060Z,72.49
2023-04-19T07:57:28.430Z,72.13
2023-04-19T08:00:29.490Z,71.98
2023-04-19T08:03:34.332Z,71.52
2023-04-19T08:06:40.320Z,70.84
2023-04-19T08:09:45.583Z,71.18
2023-04-19T08:19:05.485Z,69.74
2023-04-19T08:22:11.402Z,71.11
2023-04-19T08:25:16.821Z,66.17
2023-04-19T08:28:21.777Z,65.48
2023-04-19T08:31:28.265Z,65.97
2023-04-19T08:34:32.879Z,67.74
2023-04-19T08:37:38.449Z,67.20
2023-04-19T08:40:45.315Z,67.23
2023-04-19T08:43:51.145Z,65.99
2023-04-19T08:46:56.909Z,65.31
2023-04-19T08:53:23.725Z,65.20
2023-04-19T08:56:32.047Z,66.71
2023-04-19T08:59:24.290Z,65.63
2023-04-19T09:02:31.022Z,66.63
2023-04-19T09:05:36.450Z,65.25
2023-04-19T09:08:46.072Z,63.65
2023-04-19T09:11:51.717Z,65.15
2023-04-19T09:15:02.367Z,63.74
2023-04-19T09:18:18.036Z,62.67
2023-04-19T09:21:23.544Z,62.65
2023-04-19T09:24:22.449Z,63.53
2023-04-19T09:27:08.248Z,62.87
2023-04-19T09:30:04.281Z,63.71
2023-04-19T09:32:55.393Z,63.97
2023-04-19T09:35:56.269Z,61.93
2023-04-19T09:39:01.072Z,62.77
2023-04-19T09:42:09.078Z,61.59
2023-04-19T09:45:29.242Z,61.91
2023-04-19T09:48:21.626Z,61.46
2023-04-19T09:51:26.881Z,60.98
2023-04-19T09:54:33.887Z,59.10
2023-04-19T09:57:38.898Z,58.90
2023-04-19T10:00:50.048Z,59.21
2023-04-19T10:03:50.955Z,60.48
2023-04-19T10:10:18.781Z,59.26
2023-04-19T10:16:04.836Z,58.04
2023-04-19T10:19:03.899Z,58.46
2023-04-19T10:22:11.188Z,58.02
2023-04-19T10:25:24.427Z,59.06
2023-04-19T10:28:32.076Z,58.07
2023-04-19T10:31:38.817Z,59.76
2023-04-19T10:34:54.107Z,61.42
2023-04-19T10:38:20.239Z,62.21
2023-04-19T10:41:26.944Z,62.95
2023-04-19T10:44:32.478Z,63.34
2023-04-19T10:51:24.162Z,63.31
2023-04-19T10:54:52.441Z,62.60
2023-04-19T10:58:21.922Z,60.81
2023-04-19T11:01:50.427Z,61.41
2023-04-19T11:05:06.960Z,61.93
2023-04-19T11:08:12.663Z,59.80
2023-04-19T11:11:19.957Z,61.54
2023-04-19T11:14:25.976Z,61.83
2023-04-19T11:17:39.028Z,63.39
2023-04-19T11:20:43.978Z,64.54
2023-04-19T11:23:49.898Z,64.38
2023-04-19T11:26:57.876Z,64.78
2023-04-19T11:30:03.619Z,65.16
2023-04-19T11:33:09.753Z,65.29
2023-04-19T11:36:15.572Z,64.75
2023-04-19T11:39:21.555Z,64.88
2023-04-19T11:42:34.234Z,65.97
2023-04-19T11:45:43.097Z,65.04
2023-04-19T11:48:48.602Z,66.96
2023-04-19T11:51:57.197Z,68.22
2023-04-19T11:55:02.630Z,68.32
2023-04-19T11:58:08.068Z,69.49
2023-04-19T12:01:20.457Z,69.15
2023-04-19T12:04:30.085Z,69.10
2023-04-19T12:07:36.971Z,68.74
2023-04-19T12:10:42.889Z,69.65
2023-04-19T12:13:49.104Z,70.52
2023-04-19T12:16:54.841Z,72.30
2023-04-19T12:20:01.046Z,73.76
2023-04-19T12:23:06.007Z,75.93
2023-04-19T12:26:12.305Z,78.02
2023-04-19T12:29:18.090Z,79.26
2023-04-19T12:32:25.411Z,80.66
2023-04-19T12:35:31.756Z,81.17
2023-04-19T12:38:36.960Z,81.71
2023-04-19T12:41:42.077Z,82.44
2023-04-19T12:44:47.039Z,84.17
2023-04-19T12:47:54.050Z,83.51
2023-04-19T12:50:59.895Z,81.42
2023-04-19T12:54:05.558Z,80.71
2023-04-19T12:57:09.721Z,79.57
2023-04-19T13:00:16.284Z,78.61
2023-04-19T13:03:22.408Z,77.77
2023-04-19T13:06:28.284Z,78.07
2023-04-19T13:09:34.612Z,78.03
2023-04-19T13:12:40.172Z,78.93
2023-04-19T13:15:45.786Z,80.19
2023-04-19T13:18:52.891Z,81.40
2023-04-19T13:21:59.309Z,82.39
2023-04-19T13:25:05.057Z,82.67
2023-04-19T13:28:11.117Z,82.59
2023-04-19T13:31:16.237Z,83.42
2023-04-19T13:34:21.050Z,83.62
2023-04-19T13:37:26.155Z,83.81
2023-04-19T13:40:32.334Z,85.28
2023-04-19T13:43:37.307Z,86.28
2023-04-19T13:46:42.309Z,86.49
2023-04-19T13:49:47.022Z,86.75
2023-04-19T13:52:52.844Z,86.52
2023-04-19T13:55:58.673Z,87.49
2023-04-19T13:59:04.452Z,87.03
2023-04-19T14:02:09.696Z,87.80
2023-04-19T14:05:15.451Z,87.84
2023-04-19T14:08:20.460Z,88.94
2023-04-19T14:11:25.347Z,88.18
2023-04-19T14:14:32.006Z,88.62
2023-04-19T14:17:37.969Z,89.27
2023-04-19T14:20:43.660Z,90.53
2023-04-19T14:23:49.082Z,89.46
2023-04-19T14:27:07.210Z,89.79
2023-04-19T14:30:02.086Z,89.06
2023-04-19T14:33:08.625Z,90.46
2023-04-19T14:36:14.970Z,90.75
2023-04-19T14:39:23.155Z,90.44
2023-04-19T14:42:30.976Z,89.87
2023-04-19T14:45:36.641Z,91.08
2023-04-19T14:48:41.896Z,91.92
2023-04-19T14:51:49.855Z,91.82
2023-04-19T14:54:55.150Z,92.54
2023-04-19T14:58:01.717Z,92.84
2023-04-19T15:01:06.742Z,92.81
2023-04-19T15:04:13.597Z,94.19
2023-04-19T15:07:19.699Z,93.95
2023-04-19T15:10:25.845Z,93.87
2023-04-19T15:13:32.863Z,95.01
2023-04-19T15:16:40.350Z,95.31
2023-04-19T15:19:45.199Z,95.93
2023-04-19T15:22:50.733Z,95.99
2023-04-19T15:25:56.870Z,95.08
2023-04-19T15:29:03.596Z,93.49
2023-04-19T15:32:09.742Z,94.31
2023-04-19T15:35:16.332Z,94.19
2023-04-19T15:38:21.939Z,93.84
2023-04-19T15:41:27.927Z,92.50
2023-04-19T15:44:33.803Z,92.76
2023-04-19T15:47:39.290Z,92.39
2023-04-19T15:50:45.166Z,93.72
2023-04-19T15:53:50.897Z,95.04
2023-04-19T15:56:57.498Z,95.55
2023-04-19T16:00:03.722Z,96.58
2023-04-19T16:03:11.269Z,97.14
2023-04-19T16:06:18.154Z,98.27
2023-04-19T16:09:23.569Z,97.87
2023-04-19T16:12:29.309Z,98.39
2023-04-19T16:15:34.649Z,98.35
2023-04-19T16:18:40.205Z,96.98
2023-04-19T16:21:46.333Z,97.37
2023-04-19T16:24:53.711Z,97.40
2023-04-19T16:28:01.282Z,100.00
2023-04-19T16:31:08.141Z,100.00
2023-04-19T16:34:14.685Z,99.20
2023-04-19T16:37:20.388Z,97.67
2023-04-19T16:40:26.028Z,97.52
2023-04-19T16:43:32.240Z,97.40
2023-04-19T16:46:37.546Z,98.20
2023-04-19T16:49:44.529Z,98.95
2023-04-19T16:52:50.179Z,98.87
2023-04-19T16:55:56.646Z,99.06
2023-04-19T16:59:05.736Z,99.36
2023-04-19T17:02:14.767Z,99.91
2023-04-19T17:05:22.823Z,99.69
2023-04-19T17:08:28.729Z,100.00
2023-04-19T17:11:33.906Z,100.00
2023-04-19T17:14:26.222Z,100.00
2023-04-19T17:17:33.147Z,100.00
2023-04-19T17:20:39.443Z,100.00
2023-04-19T17:23:45.549Z,100.00
2023-04-19T17:26:51.844Z,100.00
2023-04-19T17:29:58.596Z,100.00
2023-04-19T17:33:06.114Z,100.00
2023-04-19T17:36:28.422Z,100.00
2023-04-19T17:39:35.129Z,100.00
2023-04-19T17:42:33.873Z,100.00
2023-04-19T17:45:28.467Z,100.00
2023-04-19T17:48:32.889Z,100.00
2023-04-19T17:51:41.760Z,100.00
2023-04-19T17:54:44.048Z,100.00
2023-04-19T17:57:52.639Z,100.00
2023-04-19T18:01:00.835Z,100.00
2023-04-19T18:04:06.717Z,100.00
2023-04-19T18:07:13.540Z,100.00
2023-04-19T18:10:24.680Z,100.00
2023-04-19T18:13:31.804Z,100.00
2023-04-19T18:16:37.379Z,100.00
2023-04-19T18:19:35.619Z,100.00
2023-04-19T18:22:40.708Z,100.00
2023-04-19T18:25:46.680Z,100.00
2023-04-19T18:28:54.032Z,100.00
2023-04-19T18:31:52.276Z,100.00
2023-04-19T18:34:45.820Z,100.00
2023-04-19T18:37:50.961Z,100.00
2023-04-19T18:40:57.731Z,100.00
2023-04-19T18:44:25.797Z,100.00
2023-04-19T18:47:10.878Z,100.00
2023-04-19T18:50:19.071Z,100.00
2023-04-19T18:53:23.250Z,100.00
2023-04-19T18:57:03.771Z,100.00
2023-04-19T18:59:35.811Z,100.00
2023-04-19T19:02:44.006Z,100.00
2023-04-19T19:05:50.072Z,100.00
2023-04-19T19:08:57.890Z,100.00
2023-04-19T19:12:03.612Z,100.00
2023-04-19T19:15:08.673Z,100.00
2023-04-19T19:18:14.975Z,100.00
2023-04-19T19:21:20.650Z,100.00
2023-04-19T19:24:26.523Z,100.00
2023-04-19T19:27:25.320Z,100.00
2023-04-19T19:30:32.138Z,100.00
2023-04-19T19:33:39.964Z,100.00
2023-04-19T19:36:44.192Z,100.00
2023-04-19T19:39:52.219Z,100.00
2023-04-19T19:42:57.803Z,100.00
2023-04-19T19:46:03.079Z,100.00
2023-04-19T19:49:12.614Z,100.00
2023-04-19T19:52:15.238Z,100.00
2023-04-19T19:55:20.807Z,100.00
2023-04-19T19:58:46.271Z,100.00
2023-04-19T20:01:32.430Z,100.00
2023-04-19T20:04:38.131Z,100.00
2023-04-19T20:10:49.565Z,100.00
2023-04-19T20:13:55.099Z,100.00
2023-04-19T20:17:00.303Z,100.00
2023-04-19T20:20:06.923Z,100.00
2023-04-19T20:23:05.237Z,100.00
2023-04-19T20:25:58.122Z,100.00
2023-04-19T20:29:02.555Z,100.00
2023-04-19T20:32:07.378Z,100.00
2023-04-19T20:35:16.735Z,100.00
2023-04-19T20:38:22.616Z,100.00
2023-04-19T20:41:29.195Z,100.00
2023-04-19T20:44:34.638Z,100.00
2023-04-19T20:47:40.264Z,100.00
2023-04-19T20:50:46.338Z,100.00
2023-04-19T20:53:53.084Z,100.00
2023-04-19T20:56:58.985Z,100.00
2023-04-19T21:00:04.850Z,100.00
2023-04-19T21:03:10.291Z,100.00
2023-04-19T21:06:15.466Z,100.00
2023-04-19T21:09:20.241Z,100.00
2023-04-19T21:12:24.906Z,100.00
2023-04-19T21:15:30.059Z,100.00
2023-04-19T21:18:36.776Z,100.00
2023-04-19T21:21:41.843Z,100.00
2023-04-19T21:24:47.151Z,100.00
2023-04-19T21:27:52.220Z,100.00
2023-04-19T21:30:58.622Z,100.00
2023-04-19T21:34:05.339Z,100.00
2023-04-19T21:37:11.061Z,100.00
2023-04-19T21:40:16.030Z,100.00
2023-04-19T21:43:20.804Z,100.00
2023-04-19T21:46:26.032Z,100.00
2023-04-19T21:49:31.673Z,100.00
2023-04-19T21:52:35.739Z,100.00
2023-04-19T21:55:41.745Z,100.00
2023-04-19T21:58:47.735Z,100.00
2023-04-19T22:01:54.271Z,100.00
2023-04-19T22:05:00.680Z,100.00
2023-04-19T22:07:59.857Z,100.00
2023-04-19T22:11:07.237Z,100.00
2023-04-19T22:14:11.740Z,100.00
2023-04-19T22:17:16.573Z,100.00
2023-04-19T22:20:24.290Z,100.00
2023-04-19T22:23:30.485Z,100.00
2023-04-19T22:26:35.625Z,100.00
2023-04-19T22:29:43.024Z,100.00
2023-04-19T22:32:48.832Z,100.00
2023-04-19T22:35:54.628Z,100.00
2023-04-19T22:38:53.945Z,100.00
2023-04-19T22:42:00.131Z,100.00
2023-04-19T22:45:05.592Z,100.00
2023-04-19T22:48:11.196Z,100.00
2023-04-19T22:51:16.175Z,100.00
2023-04-19T22:54:22.788Z,100.00
2023-04-19T22:57:21.994Z,100.00
2023-04-19T23:00:28.212Z,100.00
2023-04-19T23:03:34.665Z,100.00
2023-04-19T23:06:41.246Z,100.00
2023-04-19T23:09:39.702Z,100.00
2023-04-19T23:12:26.097Z,100.00
2023-04-19T23:15:20.098Z,100.00
2023-04-19T23:18:06.722Z,100.00
2023-04-19T23:20:58.724Z,100.00
2023-04-19T23:23:45.596Z,100.00
2023-04-19T23:26:38.545Z,100.00
2023-04-19T23:29:43.658Z,100.00
2023-04-19T23:32:49.670Z,100.00
2023-04-19T23:35:54.679Z,100.00
2023-04-19T23:38:53.444Z,100.00
2023-04-19T23:41:46.272Z,100.00
2023-04-19T23:44:52.709Z,100.00
2023-04-19T23:47:59.366Z,100.00
2023-04-19T23:50:58.566Z,100.00
2023-04-19T23:54:04.818Z,100.00
2023-04-19T23:57:10.353Z,100.00
